Station History

Weather Underground - logo

Station Historical Data
Daily Summary for December 5, 2017 Units:  Metric    English   Both
« Previous Day
Next Day »
Daily Weekly Monthly Yearly Custom
  High: Low: Average:
Temperature: 14.8 °C 0.4 °C 6 °C
Dew Point: 6.3 °C -0.5 °C 2.7 °C
Humidity: 95 % 52 % 81 %
Wind Speed: 5.6 km/h 0 km/h 0.8 km/h
Wind Gust: 5.6 km/h - -
Wind:- - South
Pressure: 1027.3 hPa 1023.2 hPa -
Precipitation: 0.25 mm    
Historical Graphs
 
 
Tabular Data for December 5, 2017
Time Temperature Dew Point Pressure Wind Wind Speed Wind Gust Humidity Rainfall Rate (Hourly)
00:04 2.6 °C 1.4 °C 1023.2 hPa Calm     92 % 0 mm
00:09 2.6 °C 1.4 °C 1023.2 hPa Calm     92 % 0 mm
00:14 2.6 °C 1.4 °C 1023.2 hPa Calm     92 % 0 mm
00:19 2.6 °C 1.4 °C 1023.2 hPa Calm     92 % 0 mm
00:24 2.6 °C 1.4 °C 1023.6 hPa Calm     92 % 0 mm
00:29 2.6 °C 1.6 °C 1023.6 hPa Calm     93 % 0 mm
00:34 2.6 °C 1.6 °C 1023.6 hPa Calm     93 % 0 mm
00:39 2.7 °C 1.7 °C 1023.6 hPa Calm     93 % 0 mm
00:44 2.8 °C 1.8 °C 1023.6 hPa Calm     93 % 0 mm
00:49 2.9 °C 1.9 °C 1023.6 hPa East 1.9 km/h 1.9 km/h 93 % 0 mm
00:54 3.1 °C 1.9 °C 1023.6 hPa Calm     92 % 0 mm
00:59 3.1 °C 1.9 °C 1023.9 hPa East 1.9 km/h   92 % 0 mm
01:04 3.2 °C 2.1 °C 1023.9 hPa Calm     92 % 0 mm
01:09 3.2 °C 2.1 °C 1023.9 hPa Calm     92 % 0 mm
01:14 3.2 °C 1.9 °C 1023.9 hPa Calm     91 % 0 mm
01:19 3.2 °C 1.9 °C 1023.9 hPa Calm     91 % 0 mm
01:24 3.2 °C 1.8 °C 1023.6 hPa Calm     91 % 0 mm
01:29 3.2 °C 1.9 °C 1023.6 hPa East 1.9 km/h   91 % 0 mm
01:34 3.3 °C 2.1 °C 1023.9 hPa Calm     92 % 0 mm
01:39 3.2 °C 1.9 °C 1023.9 hPa Calm     91 % 0 mm
01:44 3.2 °C 1.9 °C 1023.9 hPa Calm     91 % 0 mm
01:49 3.2 °C 2.1 °C 1023.9 hPa Calm     92 % 0 mm
01:54 3.3 °C 2.2 °C 1023.9 hPa Calm     92 % 0 mm
01:59 3.2 °C 1.7 °C 1023.9 hPa Calm     90 % 0 mm
02:04 2.9 °C 1.6 °C 1023.9 hPa Calm     91 % 0 mm
02:09 2.8 °C 1.4 °C 1024.3 hPa Calm     91 % 0 mm
02:14 2.7 °C 1.3 °C 1023.9 hPa Calm     91 % 0 mm
02:19 2.5 °C 1.3 °C 1023.9 hPa East 1.9 km/h 1.9 km/h 92 % 0 mm
02:24 2.3 °C 1 °C 1024.3 hPa Calm     91 % 0 mm
02:29 2.2 °C 1 °C 1023.9 hPa East 1.9 km/h   92 % 0 mm
02:34 2.1 °C 0.9 °C 1023.9 hPa Calm     92 % 0 mm
02:39 2 °C 0.8 °C 1023.9 hPa Calm     92 % 0 mm
02:44 1.9 °C 0.9 °C 1023.9 hPa Calm     93 % 0 mm
02:49 1.8 °C 0.8 °C 1023.9 hPa East 1.9 km/h   93 % 0 mm
02:54 1.7 °C 0.7 °C 1023.9 hPa Calm     93 % 0 mm
02:59 1.7 °C 0.7 °C 1023.9 hPa Calm     93 % 0 mm
03:04 1.7 °C 0.7 °C 1023.9 hPa East 1.6 km/h   93 % 0 mm
03:09 1.6 °C 0.6 °C 1023.9 hPa Calm     93 % 0 mm
03:14 1.6 °C 0.6 °C 1023.9 hPa Calm     93 % 0 mm
03:18 1.6 °C 0.6 °C 1023.9 hPa Calm     93 % 0 mm
03:23 1.6 °C 0.6 °C 1023.9 hPa Calm     93 % 0 mm
03:28 1.6 °C 0.6 °C 1023.9 hPa East 1.6 km/h   93 % 0 mm
03:33 1.5 °C 0.5 °C 1024.3 hPa Calm     93 % 0 mm
03:38 1.6 °C 0.7 °C 1024.3 hPa Calm     94 % 0 mm
03:43 1.7 °C 0.8 °C 1023.9 hPa East 1.9 km/h   94 % 0 mm
03:45 1.7 °C 0.8 °C 1023.9 hPa East 1.9 km/h 1.9 km/h 94 % 0 mm
03:50 1.8 °C 0.8 °C 1023.9 hPa Calm     93 % 0 mm
03:55 1.8 °C 0.8 °C 1024.3 hPa Calm     93 % 0 mm
04:00 1.7 °C 0.7 °C 1024.3 hPa Calm     93 % 0 mm
04:05 1.4 °C 0.2 °C 1024.3 hPa Calm     92 % 0 mm
04:10 1.2 °C 0.1 °C 1024.6 hPa East 1.9 km/h 1.9 km/h 92 % 0 mm
04:15 1.2 °C 0.2 °C 1024.6 hPa Calm     93 % 0 mm
04:20 1.1 °C 0.1 °C 1024.3 hPa Calm     93 % 0 mm
04:25 1.1 °C 0.1 °C 1024.6 hPa East 1.9 km/h   93 % 0 mm
04:30 1.1 °C 0.2 °C 1024.6 hPa Calm     94 % 0 mm
04:35 1 °C 0.2 °C 1024.6 hPa Calm     94 % 0 mm
04:40 1 °C 0.2 °C 1024.6 hPa Calm     94 % 0 mm
04:45 1 °C 0.2 °C 1024.6 hPa Calm     94 % 0 mm
04:50 0.9 °C 0.1 °C 1024.6 hPa Calm     94 % 0 mm
04:55 1 °C 0.2 °C 1024.6 hPa Calm     94 % 0 mm
05:00 0.9 °C 0.1 °C 1024.6 hPa Calm     94 % 0 mm
05:05 0.8 °C -0.1 °C 1024.6 hPa Calm     94 % 0 mm
05:10 0.7 °C -0.2 °C 1024.6 hPa Calm     94 % 0 mm
05:15 0.6 °C -0.2 °C 1024.6 hPa Calm     94 % 0 mm
05:16 0.7 °C -0.2 °C 1024.6 hPa Calm     94 % 0 mm
05:21 0.6 °C -0.2 °C 1024.6 hPa Calm     94 % 0 mm
05:26 0.6 °C -0.2 °C 1024.6 hPa Calm     94 % 0 mm
05:31 0.6 °C -0.2 °C 1024.6 hPa East 1.9 km/h 1.9 km/h 94 % 0 mm
05:36 0.7 °C -0.2 °C 1024.6 hPa Calm     94 % 0 mm
05:41 0.7 °C -0.1 °C 1024.6 hPa East 1.9 km/h   94 % 0 mm
05:46 0.8 °C -0.1 °C 1024.6 hPa East 1.9 km/h   94 % 0 mm
05:51 0.9 °C 0.1 °C 1024.6 hPa Calm     94 % 0 mm
05:56 1 °C 0.2 °C 1024.6 hPa Calm     94 % 0 mm
06:01 0.9 °C 0.1 °C 1024.6 hPa Calm     94 % 0 mm
06:06 1 °C 0.2 °C 1024.6 hPa Calm     94 % 0 mm
06:11 0.9 °C 0.1 °C 1024.9 hPa Calm     94 % 0 mm
06:16 1 °C 0.2 °C 1024.9 hPa Calm     94 % 0 mm
06:21 0.9 °C 0.1 °C 1024.9 hPa Calm     94 % 0 mm
06:26 1 °C 0.2 °C 1024.9 hPa Calm     94 % 0 mm
06:31 1.1 °C 0.3 °C 1024.9 hPa Calm     94 % 0 mm
06:36 0.9 °C 0.1 °C 1025.3 hPa Calm     94 % 0 mm
06:41 0.9 °C -0.1 °C 1025.3 hPa Calm     93 % 0 mm
06:46 0.9 °C 0.1 °C 1025.3 hPa Calm     94 % 0 mm
06:51 0.9 °C 0.1 °C 1025.3 hPa Calm     94 % 0 mm
06:56 0.8 °C 0 °C 1025.6 hPa Calm     94 % 0 mm
07:01 0.7 °C -0.3 °C 1025.6 hPa Calm     93 % 0 mm
07:06 0.5 °C -0.5 °C 1026 hPa Calm     93 % 0 mm
07:11 0.6 °C -0.4 °C 1025.6 hPa Calm     93 % 0 mm
07:16 0.5 °C -0.5 °C 1026 hPa Calm     93 % 0 mm
07:21 0.4 °C -0.4 °C 1025.6 hPa East 1.9 km/h   94 % 0 mm
07:26 0.7 °C -0.2 °C 1026 hPa East 1.9 km/h 1.9 km/h 94 % 0 mm
07:31 0.7 °C -0.2 °C 1026 hPa Calm     94 % 0 mm
07:36 0.8 °C 0 °C 1025.6 hPa Calm     94 % 0 mm
07:41 1.2 °C 0.3 °C 1026 hPa Calm     94 % 0 mm
07:46 1.6 °C 0.9 °C 1025.6 hPa Calm     95 % 0 mm
07:51 2.1 °C 1.4 °C 1026 hPa Calm     95 % 0 mm
07:56 2.8 °C 2.1 °C 1026 hPa East 1.9 km/h 1.9 km/h 95 % 0 mm
08:01 3.2 °C 2.3 °C 1025.6 hPa Calm     94 % 0 mm
08:06 3.8 °C 2.7 °C 1026 hPa Calm     92 % 0 mm
08:11 4.2 °C 2.5 °C 1026 hPa Calm     89 % 0 mm
08:16 4 °C 2.3 °C 1026.3 hPa Calm     89 % 0.25 mm
08:21 4.6 °C 3.1 °C 1026.3 hPa Calm     90 % 0.25 mm
08:26 4.6 °C 2.8 °C 1026.3 hPa Calm     88 % 0.25 mm
08:31 4.7 °C 2.8 °C 1026.6 hPa WNW 1.9 km/h   88 % 0.25 mm
08:36 4.8 °C 3.2 °C 1026.3 hPa West 1.9 km/h 1.9 km/h 89 % 0.25 mm
08:41 4.9 °C 3.1 °C 1026.6 hPa West 1.9 km/h   88 % 0.25 mm
08:47 5.1 °C 3.3 °C 1026.6 hPa West 1.9 km/h 1.9 km/h 88 % 0.25 mm
08:52 5.3 °C 3.1 °C 1026.6 hPa WNW 1.9 km/h 1.9 km/h 86 % 0.25 mm
08:57 5.5 °C 3.3 °C 1026.6 hPa NW 1.9 km/h 1.9 km/h 86 % 0.25 mm
09:02 5.9 °C 3.7 °C 1026.6 hPa Calm     86 % 0.25 mm
09:07 6.4 °C 4.3 °C 1027 hPa SSE 1.9 km/h 1.9 km/h 86 % 0.25 mm
09:12 7 °C 4.3 °C 1027 hPa SE 5.6 km/h 5.6 km/h 83 % 0 mm
09:17 7.2 °C 4.2 °C 1027 hPa SE 5.6 km/h 5.6 km/h 81 % 0 mm
09:22 7.3 °C 4.1 °C 1027 hPa South 5.6 km/h 5.6 km/h 80 % 0 mm
09:27 7.4 °C 4 °C 1027.3 hPa SSW 1.9 km/h 1.9 km/h 79 % 0 mm
09:32 7.6 °C 3.8 °C 1027 hPa SE 5.6 km/h 5.6 km/h 77 % 0 mm
09:37 7.6 °C 3.7 °C 1027 hPa SSW 1.9 km/h 1.9 km/h 76 % 0 mm
09:47 8 °C 4 °C 1027 hPa Calm     76 % 0 mm
09:52 8.2 °C 4.2 °C 1027.3 hPa South 1.9 km/h 1.9 km/h 76 % 0 mm
09:57 8.4 °C 4 °C 1027 hPa SW 1.6 km/h 1.6 km/h 74 % 0 mm
10:02 8.6 °C 4.1 °C 1027 hPa SSE 1.9 km/h 1.9 km/h 73 % 0 mm
10:07 8.7 °C 4.2 °C 1027 hPa ENE 3.2 km/h 3.2 km/h 73 % 0 mm
10:12 8.8 °C 4.3 °C 1026.6 hPa NE 3.7 km/h 3.7 km/h 73 % 0 mm
10:17 9.1 °C 4.3 °C 1027 hPa South 1.9 km/h 1.9 km/h 72 % 0 mm
10:22 9.3 °C 4.5 °C 1026.6 hPa SSE 1.9 km/h 1.9 km/h 72 % 0 mm
10:27 9.6 °C 4.6 °C 1026.6 hPa Calm     71 % 0 mm
10:32 9.8 °C 4.4 °C 1026.6 hPa South 1.9 km/h 1.9 km/h 69 % 0 mm
10:37 10.2 °C 4.7 °C 1026.6 hPa SE 3.7 km/h 3.7 km/h 69 % 0 mm
10:42 10.3 °C 4.7 °C 1026.3 hPa East 1.9 km/h   68 % 0 mm
10:47 10.5 °C 4.8 °C 1026.3 hPa East 5.6 km/h 5.6 km/h 68 % 0 mm
10:57 10.6 °C 4.5 °C 1026.3 hPa NW 5.6 km/h 5.6 km/h 66 % 0 mm
11:02 10.6 °C 4.7 °C 1026.3 hPa SSE 3.7 km/h   67 % 0 mm
11:07 10.9 °C 5.1 °C 1026.3 hPa NNW 1.9 km/h 1.9 km/h 67 % 0 mm
11:12 11.1 °C 4.7 °C 1026 hPa SSW 1.9 km/h   65 % 0 mm
11:17 11.3 °C 4.7 °C 1026 hPa NW 3.7 km/h 3.7 km/h 64 % 0 mm
11:22 11.3 °C 5 °C 1026 hPa WNW 1.9 km/h 1.9 km/h 65 % 0 mm
11:27 11.4 °C 4.8 °C 1025.6 hPa NNW 1.9 km/h 1.9 km/h 64 % 0 mm
11:32 11.6 °C 5 °C 1025.6 hPa NNW 3.7 km/h 3.7 km/h 64 % 0 mm
11:37 11.7 °C 5.1 °C 1025.6 hPa SSE 3.7 km/h 3.7 km/h 64 % 0 mm
11:42 11.8 °C 5 °C 1025.3 hPa SSW 5.6 km/h 5.6 km/h 63 % 0 mm
11:47 11.9 °C 5.1 °C 1025.3 hPa NNW 1.9 km/h 1.9 km/h 63 % 0 mm
11:52 12 °C 5.2 °C 1025.3 hPa South 3.7 km/h 3.7 km/h 63 % 0 mm
11:57 12.3 °C 5.4 °C 1025.3 hPa South 1.9 km/h 1.9 km/h 63 % 0 mm
12:02 12.4 °C 5.3 °C 1025.3 hPa SSE 3.7 km/h 3.7 km/h 62 % 0 mm
12:07 12.4 °C 5.3 °C 1025.3 hPa SSE 3.7 km/h 3.7 km/h 62 % 0 mm
12:12 12.7 °C 5.3 °C 1024.9 hPa SSE 5.6 km/h 5.6 km/h 61 % 0 mm
12:17 12.8 °C 5.4 °C 1024.9 hPa East 1.9 km/h 1.9 km/h 61 % 0 mm
12:22 12.9 °C 5.6 °C 1024.9 hPa WSW 1.9 km/h   61 % 0 mm
12:27 12.9 °C 5.6 °C 1024.9 hPa West 1.6 km/h   61 % 0 mm
12:32 12.9 °C 5.3 °C 1024.9 hPa East 1.6 km/h   60 % 0 mm
12:37 13.1 °C 5.2 °C 1024.9 hPa NW 5.6 km/h 5.6 km/h 59 % 0 mm
12:42 13 °C 5.7 °C 1024.6 hPa Calm     61 % 0 mm
12:47 13.2 °C 5.3 °C 1024.6 hPa Calm   0.3 km/h 59 % 0 mm
12:52 13.3 °C 5.5 °C 1024.6 hPa South 1.9 km/h 1.9 km/h 59 % 0 mm
12:57 13.4 °C 5.6 °C 1024.3 hPa NW 3.7 km/h 3.7 km/h 59 % 0 mm
13:02 13.3 °C 5.4 °C 1024.3 hPa WNW 1.9 km/h 1.9 km/h 59 % 0 mm
13:08 13.3 °C 5.5 °C 1024.3 hPa WNW 1.9 km/h 1.9 km/h 59 % 0 mm
13:13 13.5 °C 5.6 °C 1024.3 hPa West 1.9 km/h   59 % 0 mm
13:18 13.6 °C 5.5 °C 1023.9 hPa West 1.9 km/h   58 % 0 mm
13:23 13.8 °C 5.7 °C 1023.9 hPa Calm     58 % 0 mm
13:28 14.1 °C 5.9 °C 1023.9 hPa Calm     58 % 0 mm
13:33 14.4 °C 6.3 °C 1023.9 hPa Calm     58 % 0 mm
13:38 14.7 °C 5.7 °C 1023.9 hPa SE 1.9 km/h 1.9 km/h 55 % 0 mm
13:43 14.8 °C 5.8 °C 1023.9 hPa SSE 1.9 km/h 1.9 km/h 55 % 0 mm
13:48 14.8 °C 5.3 °C 1023.9 hPa SE 1.9 km/h   53 % 0 mm
13:53 14.7 °C 5.5 °C 1023.6 hPa NW 1.9 km/h 1.9 km/h 54 % 0 mm
13:58 14.5 °C 5 °C 1023.6 hPa NW 1.9 km/h 1.9 km/h 53 % 0 mm
14:03 14.4 °C 5.5 °C 1023.6 hPa Calm     55 % 0 mm
14:08 14.6 °C 5.4 °C 1023.6 hPa SE 1.9 km/h 1.9 km/h 54 % 0 mm
14:13 14.8 °C 5.3 °C 1023.6 hPa WNW 1.9 km/h 1.9 km/h 53 % 0 mm
14:18 14.7 °C 4.9 °C 1023.6 hPa SSE 1.9 km/h 1.9 km/h 52 % 0 mm
14:23 14.7 °C 4.9 °C 1023.6 hPa NW 3.2 km/h 3.2 km/h 52 % 0 mm
14:28 14.6 °C 5.1 °C 1023.6 hPa Calm     53 % 0 mm
14:33 14.5 °C 5.3 °C 1023.6 hPa NNW 1.9 km/h   54 % 0 mm
14:38 14.3 °C 4.9 °C 1023.6 hPa Calm     53 % 0 mm
14:43 14.2 °C 4.5 °C 1023.6 hPa NNW 3.7 km/h 3.7 km/h 52 % 0 mm
14:48 14.2 °C 4.4 °C 1023.6 hPa ENE 1.9 km/h 1.9 km/h 52 % 0 mm
14:58 14.1 °C 4.7 °C 1023.6 hPa Calm     53 % 0 mm
15:03 14.1 °C 4.4 °C 1023.6 hPa East 1.9 km/h 1.9 km/h 52 % 0 mm
15:08 14.1 °C 4.7 °C 1023.9 hPa Calm     53 % 0 mm
15:13 14.1 °C 4.7 °C 1023.9 hPa Calm     53 % 0 mm
15:18 14 °C 4.6 °C 1023.9 hPa Calm     53 % 0 mm
15:23 13.9 °C 4.2 °C 1023.6 hPa SSE 1.9 km/h 1.9 km/h 52 % 0 mm
15:28 13.9 °C 4.4 °C 1023.9 hPa Calm     53 % 0 mm
15:33 13.9 °C 4.7 °C 1023.9 hPa Calm     54 % 0 mm
15:38 13.8 °C 4.3 °C 1023.6 hPa Calm     53 % 0 mm
15:43 13.7 °C 4.6 °C 1023.6 hPa Calm     54 % 0 mm
15:48 13.7 °C 4.8 °C 1023.9 hPa Calm     55 % 0 mm
15:53 13.5 °C 4.9 °C 1023.6 hPa Calm     56 % 0 mm
15:58 13.4 °C 4.8 °C 1023.6 hPa Calm     56 % 0 mm
16:03 13.3 °C 4.9 °C 1023.6 hPa Calm     57 % 0 mm
16:08 13.2 °C 5.1 °C 1023.6 hPa Calm     58 % 0 mm
16:13 13.1 °C 5 °C 1023.6 hPa Calm     58 % 0 mm
16:18 12.9 °C 5.1 °C 1023.6 hPa Calm     59 % 0 mm
16:24 12.8 °C 4.7 °C 1023.6 hPa Calm     58 % 0 mm
16:34 12.3 °C 5.4 °C 1023.6 hPa Calm     63 % 0 mm
16:39 11.8 °C 5.2 °C 1023.6 hPa Calm     64 % 0 mm
16:44 11.4 °C 5.3 °C 1023.6 hPa Calm     66 % 0 mm
16:49 11.1 °C 5.2 °C 1023.6 hPa Calm     67 % 0 mm
16:54 10.8 °C 4.9 °C 1023.6 hPa Calm     67 % 0 mm
16:59 10.6 °C 4.9 °C 1023.6 hPa Calm     68 % 0 mm
17:04 10.3 °C 4.8 °C 1023.6 hPa Calm     69 % 0 mm
17:09 9.9 °C 4.7 °C 1023.6 hPa Calm     70 % 0 mm
17:14 9.6 °C 4.8 °C 1023.6 hPa Calm     72 % 0 mm
17:19 9.2 °C 4.6 °C 1023.6 hPa Calm     73 % 0 mm
17:24 8.8 °C 4.4 °C 1023.9 hPa Calm     74 % 0 mm
17:29 8.5 °C 4.5 °C 1023.6 hPa Calm     76 % 0 mm
17:34 8.3 °C 4.6 °C 1023.6 hPa Calm     77 % 0 mm
17:39 8.1 °C 4.3 °C 1023.6 hPa Calm     77 % 0 mm
17:44 7.8 °C 4.4 °C 1023.9 hPa Calm     79 % 0 mm
17:49 7.7 °C 4.5 °C 1023.9 hPa Calm     80 % 0 mm
17:54 7.7 °C 4.3 °C 1023.9 hPa Calm     79 % 0 mm
17:59 7.6 °C 4.2 °C 1023.9 hPa Calm     79 % 0 mm
18:04 7.3 °C 4.3 °C 1023.9 hPa Calm     81 % 0 mm
18:09 7.1 °C 4.1 °C 1023.9 hPa Calm     81 % 0 mm
18:14 6.9 °C 3.8 °C 1024.3 hPa Calm     81 % 0 mm
18:19 6.7 °C 3.9 °C 1024.3 hPa Calm     82 % 0 mm
18:24 6.5 °C 3.7 °C 1024.3 hPa Calm     82 % 0 mm
18:29 6.3 °C 3.7 °C 1024.3 hPa Calm     83 % 0 mm
18:34 6.1 °C 3.6 °C 1024.3 hPa Calm     84 % 0 mm
18:39 6 °C 3.5 °C 1024.3 hPa Calm     84 % 0 mm
18:44 6.1 °C 3.6 °C 1024.3 hPa Calm     84 % 0 mm
18:49 6.1 °C 3.6 °C 1024.3 hPa Calm     84 % 0 mm
18:54 6.1 °C 3.6 °C 1024.3 hPa Calm     84 % 0 mm
18:59 5.9 °C 3.4 °C 1024.3 hPa Calm     84 % 0 mm
19:04 5.8 °C 3.4 °C 1024.3 hPa Calm     85 % 0 mm
19:10 5.7 °C 3.6 °C 1024.3 hPa Calm     86 % 0 mm
19:15 5.7 °C 3.3 °C 1024.6 hPa Calm     85 % 0 mm
19:20 5.6 °C 3.4 °C 1024.6 hPa Calm     86 % 0 mm
19:25 5.5 °C 3.3 °C 1024.6 hPa Calm     86 % 0 mm
19:30 5.4 °C 3.2 °C 1024.3 hPa Calm     86 % 0 mm
19:35 5.2 °C 2.9 °C 1024.6 hPa Calm     85 % 0 mm
19:40 5.1 °C 2.9 °C 1024.6 hPa Calm     86 % 0 mm
19:45 4.8 °C 2.7 °C 1024.6 hPa Calm     86 % 0 mm
19:50 4.8 °C 2.9 °C 1024.6 hPa Calm     88 % 0 mm
19:55 4.7 °C 2.9 °C 1024.6 hPa Calm     88 % 0 mm
20:00 4.8 °C 2.9 °C 1024.6 hPa Calm     88 % 0 mm
20:05 4.8 °C 2.9 °C 1024.6 hPa Calm     88 % 0 mm
20:10 4.7 °C 2.9 °C 1024.6 hPa Calm     88 % 0 mm
20:15 4.6 °C 2.6 °C 1024.6 hPa Calm     87 % 0 mm
20:20 4.4 °C 2.4 °C 1024.6 hPa Calm     87 % 0 mm
20:25 4.3 °C 2.4 °C 1024.6 hPa Calm     88 % 0 mm
20:30 4.4 °C 2.6 °C 1024.6 hPa Calm     88 % 0 mm
20:35 4.4 °C 2.6 °C 1024.6 hPa Calm     88 % 0 mm
20:40 4.2 °C 2.2 °C 1024.6 hPa Calm     87 % 0 mm
20:45 3.8 °C 1.9 °C 1024.6 hPa Calm     87 % 0 mm
20:50 3.6 °C 1.7 °C 1024.6 hPa Calm     87 % 0 mm
20:55 3.4 °C 1.4 °C 1024.9 hPa Calm     87 % 0 mm
21:00 3.3 °C 1.5 °C 1024.9 hPa Calm     88 % 0 mm
21:05 3.2 °C 1.4 °C 1024.9 hPa Calm     88 % 0 mm
21:10 2.9 °C 1.2 °C 1024.9 hPa Calm     88 % 0 mm
21:15 2.9 °C 1.2 °C 1024.9 hPa Calm     88 % 0 mm
21:20 2.9 °C 1.3 °C 1025.3 hPa Calm     89 % 0 mm
21:25 2.9 °C 1.4 °C 1025.3 hPa Calm     90 % 0 mm
21:30 2.9 °C 1.3 °C 1025.3 hPa Calm     89 % 0 mm
21:35 2.8 °C 1.3 °C 1025.3 hPa Calm     90 % 0 mm
21:40 2.8 °C 1.3 °C 1025.3 hPa Calm     90 % 0 mm
21:45 2.7 °C 1.2 °C 1025.3 hPa Calm     90 % 0 mm
21:50 3 °C 1.8 °C 1025.3 hPa Calm     92 % 0 mm
21:55 3.2 °C 1.8 °C 1025.3 hPa Calm     91 % 0 mm
22:00 3.2 °C 1.7 °C 1025.3 hPa Calm     90 % 0 mm
22:05 3.2 °C 1.7 °C 1025.3 hPa Calm     90 % 0 mm
22:10 3.1 °C 1.6 °C 1025.6 hPa Calm     90 % 0 mm
22:15 2.9 °C 1.4 °C 1025.6 hPa Calm     90 % 0 mm
22:18 2.9 °C 1.4 °C 1025.6 hPa Calm     90 % 0 mm
22:23 2.8 °C 1.3 °C 1025.6 hPa Calm     90 % 0 mm
22:28 2.6 °C 0.9 °C 1025.6 hPa Calm     89 % 0 mm
22:33 2.4 °C 0.9 °C 1025.6 hPa Calm     90 % 0 mm
22:38 2.3 °C 0.8 °C 1025.6 hPa Calm     90 % 0 mm
22:43 2.3 °C 0.9 °C 1026 hPa Calm     91 % 0 mm
22:48 2.3 °C 0.9 °C 1026 hPa Calm     91 % 0 mm
22:53 2.4 °C 1.2 °C 1026 hPa Calm     92 % 0 mm
22:58 2.4 °C 1.2 °C 1026 hPa Calm     92 % 0 mm
23:03 2.4 °C 1.2 °C 1026 hPa Calm     92 % 0 mm
23:08 2.3 °C 1 °C 1026 hPa Calm     91 % 0 mm
23:18 2.1 °C 0.7 °C 1026 hPa Calm     90 % 0 mm
23:23 2 °C 0.7 °C 1026 hPa Calm     91 % 0 mm
23:28 1.9 °C 0.6 °C 1026 hPa Calm     91 % 0 mm
23:33 1.8 °C 0.5 °C 1026 hPa Calm     91 % 0 mm
23:38 1.8 °C 0.4 °C 1026 hPa Calm     91 % 0 mm
23:43 1.7 °C 0.3 °C 1026 hPa Calm     91 % 0 mm
23:48 1.2 °C -0.4 °C 1026.3 hPa Calm     89 % 0 mm
23:53 1.1 °C -0.4 °C 1026 hPa Calm     90 % 0 mm
23:58 1 °C -0.4 °C 1026.3 hPa Calm     90 % 0 mm
Park Place, Exeter, Tulare County, California, USA
Compliments of Weather Underground - 2.75 mb